sensor_id;sensor_type;location;lat;lon;timestamp;temperature;humidity
23715;DHT22;12036;50.858;4.472;2022-11-23T00:00:28;9.40;99.90
23715;DHT22;12036;50.858;4.472;2022-11-23T00:02:58;9.40;99.90
23715;DHT22;12036;50.858;4.472;2022-11-23T00:05:26;9.50;99.90
23715;DHT22;12036;50.858;4.472;2022-11-23T00:07:52;9.40;99.90
23715;DHT22;12036;50.858;4.472;2022-11-23T00:10:18;9.50;99.90
23715;DHT22;12036;50.858;4.472;2022-11-23T00:12:44;9.50;99.90
23715;DHT22;12036;50.858;4.472;2022-11-23T00:15:11;9.50;99.90
23715;DHT22;12036;50.858;4.472;2022-11-23T00:17:38;9.50;99.90
23715;DHT22;12036;50.858;4.472;2022-11-23T00:20:05;9.50;99.90
23715;DHT22;12036;50.858;4.472;2022-11-23T00:22:31;9.50;99.90
23715;DHT22;12036;50.858;4.472;2022-11-23T00:24:57;9.40;99.90
23715;DHT22;12036;50.858;4.472;2022-11-23T00:27:22;9.40;99.90
23715;DHT22;12036;50.858;4.472;2022-11-23T00:29:48;9.40;99.90
23715;DHT22;12036;50.858;4.472;2022-11-23T00:32:14;9.40;99.90
23715;DHT22;12036;50.858;4.472;2022-11-23T00:34:39;9.40;99.90
23715;DHT22;12036;50.858;4.472;2022-11-23T00:37:05;9.40;99.90
23715;DHT22;12036;50.858;4.472;2022-11-23T00:39:31;9.30;99.90
23715;DHT22;12036;50.858;4.472;2022-11-23T00:41:56;9.30;99.90
23715;DHT22;12036;50.858;4.472;2022-11-23T00:44:22;9.30;99.90
23715;DHT22;12036;50.858;4.472;2022-11-23T00:46:47;9.30;99.90
23715;DHT22;12036;50.858;4.472;2022-11-23T00:49:13;9.30;99.90
23715;DHT22;12036;50.858;4.472;2022-11-23T00:51:39;9.30;99.90
23715;DHT22;12036;50.858;4.472;2022-11-23T00:54:05;9.30;99.90
23715;DHT22;12036;50.858;4.472;2022-11-23T00:56:33;9.30;99.90
23715;DHT22;12036;50.858;4.472;2022-11-23T00:59:00;9.40;99.90
23715;DHT22;12036;50.858;4.472;2022-11-23T01:01:32;9.40;99.90
23715;DHT22;12036;50.858;4.472;2022-11-23T01:04:06;9.40;99.90
23715;DHT22;12036;50.858;4.472;2022-11-23T01:06:34;9.40;99.90
23715;DHT22;12036;50.858;4.472;2022-11-23T01:09:06;9.50;99.90
23715;DHT22;12036;50.858;4.472;2022-11-23T01:11:33;9.50;99.90
23715;DHT22;12036;50.858;4.472;2022-11-23T01:13:58;9.50;99.90
23715;DHT22;12036;50.858;4.472;2022-11-23T01:16:29;9.50;99.90
23715;DHT22;12036;50.858;4.472;2022-11-23T01:18:56;9.50;99.90
23715;DHT22;12036;50.858;4.472;2022-11-23T01:21:23;9.50;99.90
23715;DHT22;12036;50.858;4.472;2022-11-23T01:23:49;9.50;99.90
23715;DHT22;12036;50.858;4.472;2022-11-23T01:26:15;9.60;99.90
23715;DHT22;12036;50.858;4.472;2022-11-23T01:28:41;9.60;99.90
23715;DHT22;12036;50.858;4.472;2022-11-23T01:31:18;9.60;99.90
23715;DHT22;12036;50.858;4.472;2022-11-23T01:33:45;9.60;99.90
23715;DHT22;12036;50.858;4.472;2022-11-23T01:36:13;9.70;99.90
23715;DHT22;12036;50.858;4.472;2022-11-23T01:38:39;9.60;99.90
23715;DHT22;12036;50.858;4.472;2022-11-23T01:41:06;9.60;99.90
23715;DHT22;12036;50.858;4.472;2022-11-23T01:43:32;9.60;99.90
23715;DHT22;12036;50.858;4.472;2022-11-23T01:45:59;9.50;99.90
23715;DHT22;12036;50.858;4.472;2022-11-23T01:48:37;9.60;99.90
23715;DHT22;12036;50.858;4.472;2022-11-23T01:51:33;9.60;99.90
23715;DHT22;12036;50.858;4.472;2022-11-23T01:54:07;9.60;99.90
23715;DHT22;12036;50.858;4.472;2022-11-23T01:56:41;9.60;99.90
23715;DHT22;12036;50.858;4.472;2022-11-23T01:59:11;9.60;99.90
23715;DHT22;12036;50.858;4.472;2022-11-23T02:01:38;9.60;99.90
23715;DHT22;12036;50.858;4.472;2022-11-23T02:04:06;9.50;99.90
23715;DHT22;12036;50.858;4.472;2022-11-23T02:06:32;9.50;99.90
23715;DHT22;12036;50.858;4.472;2022-11-23T02:08:59;9.50;99.90
23715;DHT22;12036;50.858;4.472;2022-11-23T02:11:25;9.50;99.90
23715;DHT22;12036;50.858;4.472;2022-11-23T02:13:50;9.60;99.90
23715;DHT22;12036;50.858;4.472;2022-11-23T02:16:17;9.60;99.90
23715;DHT22;12036;50.858;4.472;2022-11-23T02:18:47;9.60;99.90
23715;DHT22;12036;50.858;4.472;2022-11-23T02:21:14;9.60;99.90
23715;DHT22;12036;50.858;4.472;2022-11-23T02:23:54;9.60;99.90
23715;DHT22;12036;50.858;4.472;2022-11-23T02:26:28;9.60;99.90
23715;DHT22;12036;50.858;4.472;2022-11-23T02:29:25;9.60;99.90
23715;DHT22;12036;50.858;4.472;2022-11-23T02:31:51;9.70;99.90
23715;DHT22;12036;50.858;4.472;2022-11-23T02:34:18;9.50;99.90
23715;DHT22;12036;50.858;4.472;2022-11-23T02:36:55;9.50;99.90
23715;DHT22;12036;50.858;4.472;2022-11-23T02:39:37;9.40;99.90
23715;DHT22;12036;50.858;4.472;2022-11-23T02:42:05;9.40;99.90
23715;DHT22;12036;50.858;4.472;2022-11-23T02:44:45;9.40;99.90
23715;DHT22;12036;50.858;4.472;2022-11-23T02:47:14;9.40;99.90
23715;DHT22;12036;50.858;4.472;2022-11-23T02:49:40;9.40;99.90
23715;DHT22;12036;50.858;4.472;2022-11-23T02:52:07;9.40;99.90
23715;DHT22;12036;50.858;4.472;2022-11-23T02:54:33;9.40;99.90
23715;DHT22;12036;50.858;4.472;2022-11-23T02:56:59;9.30;99.90
23715;DHT22;12036;50.858;4.472;2022-11-23T02:59:24;9.30;99.90
23715;DHT22;12036;50.858;4.472;2022-11-23T03:01:50;9.30;99.90
23715;DHT22;12036;50.858;4.472;2022-11-23T03:04:16;9.20;99.90
23715;DHT22;12036;50.858;4.472;2022-11-23T03:06:41;9.20;99.90
23715;DHT22;12036;50.858;4.472;2022-11-23T03:09:07;9.20;99.90
23715;DHT22;12036;50.858;4.472;2022-11-23T03:11:33;9.20;99.90
23715;DHT22;12036;50.858;4.472;2022-11-23T03:13:59;9.20;99.90
23715;DHT22;12036;50.858;4.472;2022-11-23T03:16:24;9.10;99.90
23715;DHT22;12036;50.858;4.472;2022-11-23T03:18:50;9.10;99.90
23715;DHT22;12036;50.858;4.472;2022-11-23T03:21:16;9.10;99.90
23715;DHT22;12036;50.858;4.472;2022-11-23T03:23:42;9.20;99.90
23715;DHT22;12036;50.858;4.472;2022-11-23T03:26:08;9.10;99.90
23715;DHT22;12036;50.858;4.472;2022-11-23T03:28:33;9.10;99.90
23715;DHT22;12036;50.858;4.472;2022-11-23T03:30:59;9.20;99.90
23715;DHT22;12036;50.858;4.472;2022-11-23T03:33:24;9.30;99.90
23715;DHT22;12036;50.858;4.472;2022-11-23T03:35:50;9.30;99.90
23715;DHT22;12036;50.858;4.472;2022-11-23T03:38:16;9.20;99.90
23715;DHT22;12036;50.858;4.472;2022-11-23T03:40:46;9.30;99.90
23715;DHT22;12036;50.858;4.472;2022-11-23T03:43:13;9.10;99.90
23715;DHT22;12036;50.858;4.472;2022-11-23T03:45:38;9.00;99.90
23715;DHT22;12036;50.858;4.472;2022-11-23T03:48:05;9.00;99.90
23715;DHT22;12036;50.858;4.472;2022-11-23T03:50:30;8.90;99.90
23715;DHT22;12036;50.858;4.472;2022-11-23T03:52:56;8.90;99.90
23715;DHT22;12036;50.858;4.472;2022-11-23T03:55:22;8.90;99.90
23715;DHT22;12036;50.858;4.472;2022-11-23T03:57:48;8.90;99.90
23715;DHT22;12036;50.858;4.472;2022-11-23T04:00:14;8.90;99.90
23715;DHT22;12036;50.858;4.472;2022-11-23T04:02:41;8.90;99.90
23715;DHT22;12036;50.858;4.472;2022-11-23T04:05:07;8.80;99.90
23715;DHT22;12036;50.858;4.472;2022-11-23T04:07:33;8.80;99.90
23715;DHT22;12036;50.858;4.472;2022-11-23T04:09:58;8.90;99.90
23715;DHT22;12036;50.858;4.472;2022-11-23T04:12:24;8.90;99.90
23715;DHT22;12036;50.858;4.472;2022-11-23T04:14:51;8.90;99.90
23715;DHT22;12036;50.858;4.472;2022-11-23T04:17:17;8.90;99.90
23715;DHT22;12036;50.858;4.472;2022-11-23T04:19:43;8.90;99.90
23715;DHT22;12036;50.858;4.472;2022-11-23T04:22:08;8.90;99.90
23715;DHT22;12036;50.858;4.472;2022-11-23T04:24:34;8.90;99.90
23715;DHT22;12036;50.858;4.472;2022-11-23T04:27:00;8.90;99.90
23715;DHT22;12036;50.858;4.472;2022-11-23T04:29:25;8.90;99.90
23715;DHT22;12036;50.858;4.472;2022-11-23T04:31:51;8.90;99.90
23715;DHT22;12036;50.858;4.472;2022-11-23T04:34:17;8.90;99.90
23715;DHT22;12036;50.858;4.472;2022-11-23T04:36:42;8.90;99.90
23715;DHT22;12036;50.858;4.472;2022-11-23T04:39:10;8.90;99.90
23715;DHT22;12036;50.858;4.472;2022-11-23T04:41:37;8.90;99.90
23715;DHT22;12036;50.858;4.472;2022-11-23T04:44:03;8.90;99.90
23715;DHT22;12036;50.858;4.472;2022-11-23T04:46:29;8.90;99.90
23715;DHT22;12036;50.858;4.472;2022-11-23T04:48:54;8.90;99.90
23715;DHT22;12036;50.858;4.472;2022-11-23T04:51:20;8.90;99.90
23715;DHT22;12036;50.858;4.472;2022-11-23T04:53:46;8.80;99.90
23715;DHT22;12036;50.858;4.472;2022-11-23T04:56:12;8.80;99.90
23715;DHT22;12036;50.858;4.472;2022-11-23T04:58:37;8.70;99.90
23715;DHT22;12036;50.858;4.472;2022-11-23T05:01:06;8.70;99.90
23715;DHT22;12036;50.858;4.472;2022-11-23T05:03:32;8.70;99.90
23715;DHT22;12036;50.858;4.472;2022-11-23T05:06:01;8.70;99.90
23715;DHT22;12036;50.858;4.472;2022-11-23T05:08:28;8.70;99.90
23715;DHT22;12036;50.858;4.472;2022-11-23T05:10:54;8.80;99.90
23715;DHT22;12036;50.858;4.472;2022-11-23T05:13:20;8.70;99.90
23715;DHT22;12036;50.858;4.472;2022-11-23T05:15:45;8.60;99.90
23715;DHT22;12036;50.858;4.472;2022-11-23T05:18:14;8.60;99.90
23715;DHT22;12036;50.858;4.472;2022-11-23T05:20:40;8.50;99.90
23715;DHT22;12036;50.858;4.472;2022-11-23T05:23:06;8.50;99.90
23715;DHT22;12036;50.858;4.472;2022-11-23T05:25:32;8.40;99.90
23715;DHT22;12036;50.858;4.472;2022-11-23T05:27:58;8.40;99.90
23715;DHT22;12036;50.858;4.472;2022-11-23T05:30:24;8.40;99.90
23715;DHT22;12036;50.858;4.472;2022-11-23T05:32:50;8.40;99.90
23715;DHT22;12036;50.858;4.472;2022-11-23T05:35:15;8.30;99.90
23715;DHT22;12036;50.858;4.472;2022-11-23T05:37:41;8.40;99.90
23715;DHT22;12036;50.858;4.472;2022-11-23T05:40:07;8.40;99.90
23715;DHT22;12036;50.858;4.472;2022-11-23T05:42:33;8.30;99.90
23715;DHT22;12036;50.858;4.472;2022-11-23T05:44:59;8.20;99.90
23715;DHT22;12036;50.858;4.472;2022-11-23T05:47:25;8.20;99.90
23715;DHT22;12036;50.858;4.472;2022-11-23T05:49:50;8.20;99.90
23715;DHT22;12036;50.858;4.472;2022-11-23T05:52:16;8.20;99.90
23715;DHT22;12036;50.858;4.472;2022-11-23T05:54:42;8.20;99.90
23715;DHT22;12036;50.858;4.472;2022-11-23T05:57:08;8.10;99.90
23715;DHT22;12036;50.858;4.472;2022-11-23T05:59:34;8.10;99.90
23715;DHT22;12036;50.858;4.472;2022-11-23T06:02:00;8.10;99.90
23715;DHT22;12036;50.858;4.472;2022-11-23T06:04:25;8.10;99.90
23715;DHT22;12036;50.858;4.472;2022-11-23T06:06:51;8.00;99.90
23715;DHT22;12036;50.858;4.472;2022-11-23T06:09:19;7.90;99.90
23715;DHT22;12036;50.858;4.472;2022-11-23T06:11:45;8.00;99.90
23715;DHT22;12036;50.858;4.472;2022-11-23T06:14:12;7.90;99.90
23715;DHT22;12036;50.858;4.472;2022-11-23T06:16:38;7.90;99.90
23715;DHT22;12036;50.858;4.472;2022-11-23T06:19:03;7.90;99.90
23715;DHT22;12036;50.858;4.472;2022-11-23T06:21:29;7.80;99.90
23715;DHT22;12036;50.858;4.472;2022-11-23T06:23:55;7.80;99.90
23715;DHT22;12036;50.858;4.472;2022-11-23T06:26:20;7.90;99.90
23715;DHT22;12036;50.858;4.472;2022-11-23T06:28:46;7.90;99.90
23715;DHT22;12036;50.858;4.472;2022-11-23T06:31:11;7.80;99.90
23715;DHT22;12036;50.858;4.472;2022-11-23T06:33:37;7.80;99.90
23715;DHT22;12036;50.858;4.472;2022-11-23T06:36:03;7.80;99.90
23715;DHT22;12036;50.858;4.472;2022-11-23T06:38:29;7.80;99.90
23715;DHT22;12036;50.858;4.472;2022-11-23T06:40:58;7.80;99.90
23715;DHT22;12036;50.858;4.472;2022-11-23T06:43:25;7.70;99.90
23715;DHT22;12036;50.858;4.472;2022-11-23T06:45:50;7.70;99.90
23715;DHT22;12036;50.858;4.472;2022-11-23T06:48:16;7.70;99.90
23715;DHT22;12036;50.858;4.472;2022-11-23T06:50:41;7.70;99.90
23715;DHT22;12036;50.858;4.472;2022-11-23T06:53:08;7.70;99.90
23715;DHT22;12036;50.858;4.472;2022-11-23T06:55:37;7.60;99.90
23715;DHT22;12036;50.858;4.472;2022-11-23T06:58:02;7.60;99.90
23715;DHT22;12036;50.858;4.472;2022-11-23T07:00:28;7.60;99.90
23715;DHT22;12036;50.858;4.472;2022-11-23T07:02:54;7.60;99.90
23715;DHT22;12036;50.858;4.472;2022-11-23T07:05:21;7.60;99.90
23715;DHT22;12036;50.858;4.472;2022-11-23T07:07:47;7.60;99.90
23715;DHT22;12036;50.858;4.472;2022-11-23T07:10:13;7.50;99.90
23715;DHT22;12036;50.858;4.472;2022-11-23T07:12:39;7.40;99.90
23715;DHT22;12036;50.858;4.472;2022-11-23T07:15:05;7.40;99.90
23715;DHT22;12036;50.858;4.472;2022-11-23T07:17:31;7.40;99.90
23715;DHT22;12036;50.858;4.472;2022-11-23T07:19:57;7.30;99.90
23715;DHT22;12036;50.858;4.472;2022-11-23T07:22:23;7.30;99.90
23715;DHT22;12036;50.858;4.472;2022-11-23T07:24:48;7.20;99.90
23715;DHT22;12036;50.858;4.472;2022-11-23T07:27:16;7.30;99.90
23715;DHT22;12036;50.858;4.472;2022-11-23T07:29:41;7.30;99.90
23715;DHT22;12036;50.858;4.472;2022-11-23T07:32:07;7.30;99.90
23715;DHT22;12036;50.858;4.472;2022-11-23T07:34:33;7.30;99.90
23715;DHT22;12036;50.858;4.472;2022-11-23T07:36:58;7.20;99.90
23715;DHT22;12036;50.858;4.472;2022-11-23T07:39:24;7.20;99.90
23715;DHT22;12036;50.858;4.472;2022-11-23T07:41:50;7.20;99.90
23715;DHT22;12036;50.858;4.472;2022-11-23T07:44:15;7.20;99.90
23715;DHT22;12036;50.858;4.472;2022-11-23T07:46:41;7.20;99.90
23715;DHT22;12036;50.858;4.472;2022-11-23T07:49:07;7.20;99.90
23715;DHT22;12036;50.858;4.472;2022-11-23T07:51:32;7.20;99.90
23715;DHT22;12036;50.858;4.472;2022-11-23T07:53:58;7.30;99.90
23715;DHT22;12036;50.858;4.472;2022-11-23T07:56:24;7.30;99.90
23715;DHT22;12036;50.858;4.472;2022-11-23T07:58:49;7.20;99.90
23715;DHT22;12036;50.858;4.472;2022-11-23T08:01:16;7.30;99.90
23715;DHT22;12036;50.858;4.472;2022-11-23T08:03:46;7.30;99.90
23715;DHT22;12036;50.858;4.472;2022-11-23T08:06:12;7.30;99.90
23715;DHT22;12036;50.858;4.472;2022-11-23T08:08:38;7.30;99.90
23715;DHT22;12036;50.858;4.472;2022-11-23T08:11:05;7.30;99.90
23715;DHT22;12036;50.858;4.472;2022-11-23T08:13:31;7.20;99.90
23715;DHT22;12036;50.858;4.472;2022-11-23T08:15:59;7.20;99.90
23715;DHT22;12036;50.858;4.472;2022-11-23T08:18:25;7.30;99.90
23715;DHT22;12036;50.858;4.472;2022-11-23T08:20:51;7.30;99.90
23715;DHT22;12036;50.858;4.472;2022-11-23T08:23:17;7.40;99.90
23715;DHT22;12036;50.858;4.472;2022-11-23T08:25:43;7.50;99.90
23715;DHT22;12036;50.858;4.472;2022-11-23T08:28:09;7.70;99.90
23715;DHT22;12036;50.858;4.472;2022-11-23T08:30:35;7.70;99.90
23715;DHT22;12036;50.858;4.472;2022-11-23T08:33:05;7.70;99.90
23715;DHT22;12036;50.858;4.472;2022-11-23T08:35:35;7.80;99.90
23715;DHT22;12036;50.858;4.472;2022-11-23T08:38:02;7.80;99.90
23715;DHT22;12036;50.858;4.472;2022-11-23T08:40:28;7.80;99.90
23715;DHT22;12036;50.858;4.472;2022-11-23T08:42:54;7.90;99.90
23715;DHT22;12036;50.858;4.472;2022-11-23T08:45:20;8.00;99.90
23715;DHT22;12036;50.858;4.472;2022-11-23T08:47:46;8.10;99.90
23715;DHT22;12036;50.858;4.472;2022-11-23T08:50:12;8.20;99.90
23715;DHT22;12036;50.858;4.472;2022-11-23T08:52:37;8.20;99.90
23715;DHT22;12036;50.858;4.472;2022-11-23T08:55:03;8.30;99.90
23715;DHT22;12036;50.858;4.472;2022-11-23T08:57:29;8.20;99.90
23715;DHT22;12036;50.858;4.472;2022-11-23T08:59:55;8.20;99.90
23715;DHT22;12036;50.858;4.472;2022-11-23T09:02:21;8.10;99.90
23715;DHT22;12036;50.858;4.472;2022-11-23T09:04:46;8.10;99.90
23715;DHT22;12036;50.858;4.472;2022-11-23T09:07:12;8.10;99.90
23715;DHT22;12036;50.858;4.472;2022-11-23T09:09:38;8.20;99.90
23715;DHT22;12036;50.858;4.472;2022-11-23T09:12:04;8.20;99.90
23715;DHT22;12036;50.858;4.472;2022-11-23T09:14:30;8.30;99.90
23715;DHT22;12036;50.858;4.472;2022-11-23T09:16:55;8.40;99.90
23715;DHT22;12036;50.858;4.472;2022-11-23T09:19:21;8.50;99.90
23715;DHT22;12036;50.858;4.472;2022-11-23T09:21:47;8.50;99.90
23715;DHT22;12036;50.858;4.472;2022-11-23T09:24:13;8.60;99.90
23715;DHT22;12036;50.858;4.472;2022-11-23T09:26:39;8.60;99.90
23715;DHT22;12036;50.858;4.472;2022-11-23T09:29:06;8.60;99.90
23715;DHT22;12036;50.858;4.472;2022-11-23T09:31:33;8.70;99.90
23715;DHT22;12036;50.858;4.472;2022-11-23T09:33:58;8.70;99.90
23715;DHT22;12036;50.858;4.472;2022-11-23T09:36:24;8.90;99.90
23715;DHT22;12036;50.858;4.472;2022-11-23T09:38:51;8.80;99.90
23715;DHT22;12036;50.858;4.472;2022-11-23T09:50:17;9.00;99.90
23715;DHT22;12036;50.858;4.472;2022-11-23T09:52:47;9.10;99.90
23715;DHT22;12036;50.858;4.472;2022-11-23T09:55:46;9.20;99.90
23715;DHT22;12036;50.858;4.472;2022-11-23T09:58:18;9.30;99.90
23715;DHT22;12036;50.858;4.472;2022-11-23T10:00:51;9.30;99.90
23715;DHT22;12036;50.858;4.472;2022-11-23T10:03:18;9.50;99.90
23715;DHT22;12036;50.858;4.472;2022-11-23T10:06:00;9.60;99.90
23715;DHT22;12036;50.858;4.472;2022-11-23T10:08:51;9.80;99.90
23715;DHT22;12036;50.858;4.472;2022-11-23T10:25:13;9.60;99.90
23715;DHT22;12036;50.858;4.472;2022-11-23T10:27:40;9.80;99.90
23715;DHT22;12036;50.858;4.472;2022-11-23T10:30:11;9.80;99.90
23715;DHT22;12036;50.858;4.472;2022-11-23T10:32:43;9.80;99.90
23715;DHT22;12036;50.858;4.472;2022-11-23T10:35:14;9.70;99.90
23715;DHT22;12036;50.858;4.472;2022-11-23T10:37:40;9.80;99.90
23715;DHT22;12036;50.858;4.472;2022-11-23T10:40:23;9.80;99.90
23715;DHT22;12036;50.858;4.472;2022-11-23T10:42:56;9.70;99.90
23715;DHT22;12036;50.858;4.472;2022-11-23T10:45:26;9.70;99.90
23715;DHT22;12036;50.858;4.472;2022-11-23T10:47:54;9.80;99.90
23715;DHT22;12036;50.858;4.472;2022-11-23T10:50:34;9.70;99.90
23715;DHT22;12036;50.858;4.472;2022-11-23T10:55:32;10.00;99.90
23715;DHT22;12036;50.858;4.472;2022-11-23T10:58:26;10.20;99.90
23715;DHT22;12036;50.858;4.472;2022-11-23T11:01:20;10.20;99.90
23715;DHT22;12036;50.858;4.472;2022-11-23T11:03:47;10.20;99.90
23715;DHT22;12036;50.858;4.472;2022-11-23T11:06:23;10.20;99.90
23715;DHT22;12036;50.858;4.472;2022-11-23T11:08:55;10.30;99.90
23715;DHT22;12036;50.858;4.472;2022-11-23T11:11:36;10.40;99.90
23715;DHT22;12036;50.858;4.472;2022-11-23T11:14:20;10.40;99.90
23715;DHT22;12036;50.858;4.472;2022-11-23T11:16:58;10.60;99.90
23715;DHT22;12036;50.858;4.472;2022-11-23T11:19:34;10.70;99.90
23715;DHT22;12036;50.858;4.472;2022-11-23T11:22:27;10.70;99.90
23715;DHT22;12036;50.858;4.472;2022-11-23T11:24:53;10.80;99.90
23715;DHT22;12036;50.858;4.472;2022-11-23T11:27:21;10.80;99.90
23715;DHT22;12036;50.858;4.472;2022-11-23T11:29:50;11.00;99.90
23715;DHT22;12036;50.858;4.472;2022-11-23T11:32:29;11.20;99.90
23715;DHT22;12036;50.858;4.472;2022-11-23T11:37:46;11.40;99.90
23715;DHT22;12036;50.858;4.472;2022-11-23T11:40:32;11.40;99.90
23715;DHT22;12036;50.858;4.472;2022-11-23T11:45:43;11.50;99.90
23715;DHT22;12036;50.858;4.472;2022-11-23T11:48:19;11.30;99.90
23715;DHT22;12036;50.858;4.472;2022-11-23T11:50:51;11.40;99.90
23715;DHT22;12036;50.858;4.472;2022-11-23T11:53:19;11.40;99.90
23715;DHT22;12036;50.858;4.472;2022-11-23T11:56:00;11.30;99.90
23715;DHT22;12036;50.858;4.472;2022-11-23T11:58:30;11.20;99.90
23715;DHT22;12036;50.858;4.472;2022-11-23T12:01:24;11.20;99.90
23715;DHT22;12036;50.858;4.472;2022-11-23T12:04:05;11.30;99.90
23715;DHT22;12036;50.858;4.472;2022-11-23T12:06:36;11.40;99.90
23715;DHT22;12036;50.858;4.472;2022-11-23T12:09:15;11.50;99.90
23715;DHT22;12036;50.858;4.472;2022-11-23T12:11:42;11.20;99.90
23715;DHT22;12036;50.858;4.472;2022-11-23T12:14:11;11.10;99.90
23715;DHT22;12036;50.858;4.472;2022-11-23T12:27:29;11.10;99.90
23715;DHT22;12036;50.858;4.472;2022-11-23T12:30:36;11.00;99.90
23715;DHT22;12036;50.858;4.472;2022-11-23T12:41:13;10.20;99.90
23715;DHT22;12036;50.858;4.472;2022-11-23T12:44:14;9.90;99.90
23715;DHT22;12036;50.858;4.472;2022-11-23T12:49:37;9.60;99.90
23715;DHT22;12036;50.858;4.472;2022-11-23T12:59:43;9.30;99.90
23715;DHT22;12036;50.858;4.472;2022-11-23T13:02:28;9.30;99.90
23715;DHT22;12036;50.858;4.472;2022-11-23T13:08:26;9.20;99.90
23715;DHT22;12036;50.858;4.472;2022-11-23T13:21:17;9.00;99.90
23715;DHT22;12036;50.858;4.472;2022-11-23T13:23:46;9.00;99.90
23715;DHT22;12036;50.858;4.472;2022-11-23T13:28:38;8.80;99.90
23715;DHT22;12036;50.858;4.472;2022-11-23T13:31:30;8.80;99.90
23715;DHT22;12036;50.858;4.472;2022-11-23T13:33:59;8.80;99.90
23715;DHT22;12036;50.858;4.472;2022-11-23T13:38:55;8.70;99.90
23715;DHT22;12036;50.858;4.472;2022-11-23T13:46:54;8.70;99.90
23715;DHT22;12036;50.858;4.472;2022-11-23T13:49:48;8.60;99.90
23715;DHT22;12036;50.858;4.472;2022-11-23T13:57:40;8.60;99.90
23715;DHT22;12036;50.858;4.472;2022-11-23T14:03:47;8.60;99.90
23715;DHT22;12036;50.858;4.472;2022-11-23T14:09:54;8.60;99.90
23715;DHT22;12036;50.858;4.472;2022-11-23T14:12:41;8.50;99.90
23715;DHT22;12036;50.858;4.472;2022-11-23T14:15:29;8.50;99.90
23715;DHT22;12036;50.858;4.472;2022-11-23T14:18:33;8.40;99.90
23715;DHT22;12036;50.858;4.472;2022-11-23T14:21:04;8.40;99.90
23715;DHT22;12036;50.858;4.472;2022-11-23T14:27:04;8.30;99.90
23715;DHT22;12036;50.858;4.472;2022-11-23T14:29:51;8.40;99.90
23715;DHT22;12036;50.858;4.472;2022-11-23T14:32:45;8.40;99.90
23715;DHT22;12036;50.858;4.472;2022-11-23T14:38:11;8.40;99.90
23715;DHT22;12036;50.858;4.472;2022-11-23T14:41:07;8.60;99.90
23715;DHT22;12036;50.858;4.472;2022-11-23T14:43:41;8.60;99.90
23715;DHT22;12036;50.858;4.472;2022-11-23T14:46:19;8.60;99.90
23715;DHT22;12036;50.858;4.472;2022-11-23T14:48:47;8.60;99.90
23715;DHT22;12036;50.858;4.472;2022-11-23T14:51:18;8.60;99.90
23715;DHT22;12036;50.858;4.472;2022-11-23T14:53:48;8.60;99.90
23715;DHT22;12036;50.858;4.472;2022-11-23T14:56:42;8.60;99.90
23715;DHT22;12036;50.858;4.472;2022-11-23T14:59:31;8.60;99.90
23715;DHT22;12036;50.858;4.472;2022-11-23T15:01:59;8.70;99.90
23715;DHT22;12036;50.858;4.472;2022-11-23T15:04:30;8.60;99.90
23715;DHT22;12036;50.858;4.472;2022-11-23T15:07:08;8.50;99.90
23715;DHT22;12036;50.858;4.472;2022-11-23T15:10:01;8.60;99.90
23715;DHT22;12036;50.858;4.472;2022-11-23T15:12:41;8.60;99.90
23715;DHT22;12036;50.858;4.472;2022-11-23T15:15:25;8.70;99.90
23715;DHT22;12036;50.858;4.472;2022-11-23T15:18:01;8.70;99.90
23715;DHT22;12036;50.858;4.472;2022-11-23T15:20:32;8.60;99.90
23715;DHT22;12036;50.858;4.472;2022-11-23T15:23:00;8.70;99.90
23715;DHT22;12036;50.858;4.472;2022-11-23T15:25:26;8.60;99.90
23715;DHT22;12036;50.858;4.472;2022-11-23T15:27:53;8.60;99.90
23715;DHT22;12036;50.858;4.472;2022-11-23T15:30:29;8.60;99.90
23715;DHT22;12036;50.858;4.472;2022-11-23T15:35:23;8.70;99.90
23715;DHT22;12036;50.858;4.472;2022-11-23T15:37:49;8.70;99.90
23715;DHT22;12036;50.858;4.472;2022-11-23T15:40:17;8.80;99.90
23715;DHT22;12036;50.858;4.472;2022-11-23T15:42:44;8.90;99.90
23715;DHT22;12036;50.858;4.472;2022-11-23T15:48:17;8.70;99.90
23715;DHT22;12036;50.858;4.472;2022-11-23T15:50:54;8.70;99.90
23715;DHT22;12036;50.858;4.472;2022-11-23T15:53:23;8.60;99.90
23715;DHT22;12036;50.858;4.472;2022-11-23T15:55:49;8.60;99.90
23715;DHT22;12036;50.858;4.472;2022-11-23T15:58:17;8.60;99.90
23715;DHT22;12036;50.858;4.472;2022-11-23T16:00:51;8.60;99.90
23715;DHT22;12036;50.858;4.472;2022-11-23T16:03:32;8.50;99.90
23715;DHT22;12036;50.858;4.472;2022-11-23T16:06:17;8.40;99.90
23715;DHT22;12036;50.858;4.472;2022-11-23T16:08:44;8.40;99.90
23715;DHT22;12036;50.858;4.472;2022-11-23T16:11:33;8.40;99.90
23715;DHT22;12036;50.858;4.472;2022-11-23T16:14:14;8.30;99.90
23715;DHT22;12036;50.858;4.472;2022-11-23T16:16:40;8.30;99.90
23715;DHT22;12036;50.858;4.472;2022-11-23T16:19:20;8.30;99.90
23715;DHT22;12036;50.858;4.472;2022-11-23T16:21:47;8.30;99.90
23715;DHT22;12036;50.858;4.472;2022-11-23T16:24:19;8.30;99.90
23715;DHT22;12036;50.858;4.472;2022-11-23T16:26:45;8.30;99.90
23715;DHT22;12036;50.858;4.472;2022-11-23T16:29:23;8.30;99.90
23715;DHT22;12036;50.858;4.472;2022-11-23T16:31:55;8.40;99.90
23715;DHT22;12036;50.858;4.472;2022-11-23T16:34:22;8.30;99.90
23715;DHT22;12036;50.858;4.472;2022-11-23T16:36:48;8.30;99.90
23715;DHT22;12036;50.858;4.472;2022-11-23T16:39:14;8.20;99.90
23715;DHT22;12036;50.858;4.472;2022-11-23T16:41:40;8.20;99.90
23715;DHT22;12036;50.858;4.472;2022-11-23T16:44:05;8.20;99.90
23715;DHT22;12036;50.858;4.472;2022-11-23T16:46:31;8.20;99.90
23715;DHT22;12036;50.858;4.472;2022-11-23T16:48:57;8.20;99.90
23715;DHT22;12036;50.858;4.472;2022-11-23T16:51:23;8.20;99.90
23715;DHT22;12036;50.858;4.472;2022-11-23T16:53:49;8.30;99.90
23715;DHT22;12036;50.858;4.472;2022-11-23T16:56:23;8.30;99.90
23715;DHT22;12036;50.858;4.472;2022-11-23T16:58:50;8.20;99.90
23715;DHT22;12036;50.858;4.472;2022-11-23T17:01:26;8.20;99.90
23715;DHT22;12036;50.858;4.472;2022-11-23T17:03:54;8.20;99.90
23715;DHT22;12036;50.858;4.472;2022-11-23T17:06:20;8.20;99.90
23715;DHT22;12036;50.858;4.472;2022-11-23T17:08:49;8.20;99.90
23715;DHT22;12036;50.858;4.472;2022-11-23T17:11:25;8.20;99.90
23715;DHT22;12036;50.858;4.472;2022-11-23T17:13:53;8.20;99.90
23715;DHT22;12036;50.858;4.472;2022-11-23T17:16:21;8.20;99.90
23715;DHT22;12036;50.858;4.472;2022-11-23T17:18:48;8.20;99.90
23715;DHT22;12036;50.858;4.472;2022-11-23T17:21:13;8.20;99.90
23715;DHT22;12036;50.858;4.472;2022-11-23T17:23:39;8.10;99.90
23715;DHT22;12036;50.858;4.472;2022-11-23T17:28:44;8.10;99.90
23715;DHT22;12036;50.858;4.472;2022-11-23T17:31:10;8.20;99.90
23715;DHT22;12036;50.858;4.472;2022-11-23T17:33:38;8.20;99.90
23715;DHT22;12036;50.858;4.472;2022-11-23T17:36:05;8.20;99.90
23715;DHT22;12036;50.858;4.472;2022-11-23T17:38:30;8.30;99.90
23715;DHT22;12036;50.858;4.472;2022-11-23T17:40:56;8.30;99.90
23715;DHT22;12036;50.858;4.472;2022-11-23T17:43:21;8.30;99.90
23715;DHT22;12036;50.858;4.472;2022-11-23T17:45:47;8.30;99.90
23715;DHT22;12036;50.858;4.472;2022-11-23T17:48:14;8.40;99.90
23715;DHT22;12036;50.858;4.472;2022-11-23T17:50:40;8.30;99.90